createdAt,value
2023-04-26T00:02:25.131Z,5.43
2023-04-26T00:04:56.089Z,5.41
2023-04-26T00:07:24.705Z,5.39
2023-04-26T00:09:53.314Z,5.38
2023-04-26T00:12:22.635Z,5.34
2023-04-26T00:14:50.556Z,5.33
2023-04-26T00:17:18.393Z,5.34
2023-04-26T00:19:46.871Z,5.21
2023-04-26T00:22:15.222Z,5.21
2023-04-26T00:24:43.384Z,5.22
2023-04-26T00:27:11.284Z,5.10
2023-04-26T00:29:40.692Z,5.20
2023-04-26T00:32:08.610Z,5.13
2023-04-26T00:34:36.860Z,4.99
2023-04-26T00:37:05.743Z,5.02
2023-04-26T00:39:33.699Z,5.02
2023-04-26T00:42:01.726Z,5.03
2023-04-26T00:44:29.669Z,5.02
2023-04-26T00:46:58.908Z,5.00
2023-04-26T00:49:27.038Z,4.96
2023-04-26T00:51:55.051Z,4.92
2023-04-26T00:54:22.968Z,4.94
2023-04-26T00:56:53.070Z,4.90
2023-04-26T00:59:21.543Z,4.87
2023-04-26T01:01:49.572Z,4.86
2023-04-26T01:04:19.293Z,4.82
2023-04-26T01:06:47.487Z,4.72
2023-04-26T01:09:16.372Z,4.70
2023-04-26T01:11:45.021Z,4.71
2023-04-26T01:14:13.068Z,4.75
2023-04-26T01:16:41.347Z,4.73
2023-04-26T01:19:11.026Z,4.69
2023-04-26T01:21:42.038Z,4.61
2023-04-26T01:24:12.646Z,4.64
2023-04-26T01:26:45.414Z,4.64
2023-04-26T01:29:16.492Z,4.65
2023-04-26T01:31:44.453Z,4.59
2023-04-26T01:34:12.502Z,4.66
2023-04-26T01:36:40.578Z,4.50
2023-04-26T01:39:09.218Z,4.52
2023-04-26T01:41:38.523Z,4.54
2023-04-26T01:44:06.664Z,4.51
2023-04-26T01:46:34.551Z,4.47
2023-04-26T01:49:02.806Z,4.41
2023-04-26T01:51:31.251Z,4.37
2023-04-26T01:53:59.170Z,4.42
2023-04-26T01:56:27.025Z,4.44
2023-04-26T01:58:57.317Z,4.45
2023-04-26T02:01:25.402Z,4.38
2023-04-26T02:03:53.322Z,4.36
2023-04-26T02:06:22.057Z,4.22
2023-04-26T02:08:49.939Z,4.28
2023-04-26T02:11:18.004Z,4.30
2023-04-26T02:13:45.999Z,4.29
2023-04-26T02:16:16.405Z,4.23
2023-04-26T02:18:44.824Z,4.22
2023-04-26T02:21:13.183Z,4.24
2023-04-26T02:23:41.102Z,4.21
2023-04-26T02:26:11.607Z,4.19
2023-04-26T02:28:39.655Z,4.15
2023-04-26T02:31:07.670Z,4.13
2023-04-26T02:33:36.997Z,4.11
2023-04-26T02:36:06.053Z,4.10
2023-04-26T02:38:36.247Z,4.11
2023-04-26T02:41:06.029Z,4.07
2023-04-26T02:43:34.594Z,4.02
2023-04-26T02:46:02.599Z,3.99
2023-04-26T02:48:32.042Z,3.98
2023-04-26T02:51:01.330Z,3.99
2023-04-26T02:53:29.488Z,3.97
2023-04-26T02:55:57.267Z,3.90
2023-04-26T02:58:25.085Z,3.91
2023-04-26T03:00:54.438Z,3.97
2023-04-26T03:03:22.921Z,3.93
2023-04-26T03:05:51.192Z,3.92
2023-04-26T03:08:20.671Z,3.93
2023-04-26T03:10:48.521Z,3.89
2023-04-26T03:13:16.409Z,3.88
2023-04-26T03:15:46.225Z,3.89
2023-04-26T03:18:14.387Z,3.92
2023-04-26T03:20:42.961Z,3.89
2023-04-26T03:23:11.032Z,3.86
2023-04-26T03:25:40.426Z,3.87
2023-04-26T03:28:08.314Z,3.80
2023-04-26T03:30:36.963Z,3.83
2023-04-26T03:33:05.994Z,3.81
2023-04-26T03:35:33.922Z,3.86
2023-04-26T03:38:02.290Z,3.78
2023-04-26T03:40:30.139Z,3.80
2023-04-26T03:42:59.401Z,3.79
2023-04-26T03:45:27.790Z,3.79
2023-04-26T03:47:56.700Z,3.79
2023-04-26T03:50:24.965Z,3.77
2023-04-26T03:52:53.182Z,3.71
2023-04-26T03:55:21.452Z,3.78
2023-04-26T03:57:49.394Z,3.69
2023-04-26T04:00:18.683Z,3.74
2023-04-26T04:02:49.028Z,3.74
2023-04-26T04:05:24.602Z,3.71
2023-04-26T04:07:53.154Z,3.65
2023-04-26T04:10:23.089Z,3.66
2023-04-26T04:12:51.130Z,3.67
2023-04-26T04:15:21.566Z,3.75
2023-04-26T04:17:50.357Z,3.71
2023-04-26T04:20:18.394Z,3.72
2023-04-26T04:22:46.414Z,3.71
2023-04-26T04:25:14.778Z,3.72
2023-04-26T04:27:43.542Z,3.71
2023-04-26T04:30:12.747Z,3.76
2023-04-26T04:32:45.242Z,3.87
2023-04-26T04:35:14.403Z,3.88
2023-04-26T04:37:43.910Z,3.88
2023-04-26T04:40:13.248Z,3.89
2023-04-26T04:42:44.435Z,3.90
2023-04-26T04:45:12.791Z,3.99
2023-04-26T04:47:42.491Z,3.91
2023-04-26T04:50:10.728Z,3.96
2023-04-26T04:52:39.073Z,3.93
2023-04-26T04:55:07.589Z,4.07
2023-04-26T04:57:37.206Z,4.04
2023-04-26T05:00:10.365Z,4.14
2023-04-26T05:02:45.968Z,4.12
2023-04-26T05:05:14.071Z,4.16
2023-04-26T05:07:42.014Z,4.26
2023-04-26T05:10:10.714Z,4.34
2023-04-26T05:12:38.792Z,4.34
2023-04-26T05:15:09.263Z,4.37
2023-04-26T05:17:37.239Z,4.22
2023-04-26T05:20:15.967Z,4.35
2023-04-26T05:22:44.376Z,4.44
2023-04-26T05:25:13.820Z,4.59
2023-04-26T05:27:42.384Z,4.65
2023-04-26T05:30:21.454Z,4.68
2023-04-26T05:33:16.027Z,4.70
2023-04-26T05:35:52.522Z,4.81
2023-04-26T05:38:21.887Z,4.68
2023-04-26T05:40:49.894Z,4.81
2023-04-26T05:43:17.852Z,4.88
2023-04-26T05:45:52.135Z,4.93
2023-04-26T05:48:21.616Z,5.04
2023-04-26T05:50:52.306Z,5.08
2023-04-26T05:53:21.017Z,5.15
2023-04-26T05:55:49.139Z,5.23
2023-04-26T05:58:17.133Z,5.37
2023-04-26T06:00:46.099Z,5.40
2023-04-26T06:03:14.150Z,5.46
2023-04-26T06:05:42.287Z,5.26
2023-04-26T06:08:11.652Z,5.37
2023-04-26T06:10:39.462Z,5.29
2023-04-26T06:13:07.827Z,5.51
2023-04-26T06:15:38.022Z,5.42
2023-04-26T06:18:06.999Z,5.37
2023-04-26T06:20:34.914Z,5.52
2023-04-26T06:23:03.528Z,5.59
2023-04-26T06:25:33.941Z,5.73
2023-04-26T06:28:02.082Z,5.75
2023-04-26T06:30:30.002Z,5.71
2023-04-26T06:33:00.089Z,5.85
2023-04-26T06:35:28.179Z,6.01
2023-04-26T06:37:56.100Z,5.97
2023-04-26T06:40:24.148Z,6.03
2023-04-26T06:42:54.342Z,6.29
2023-04-26T06:45:43.652Z,6.44
2023-04-26T06:48:13.165Z,6.47
2023-04-26T06:50:41.542Z,6.67
2023-04-26T06:53:09.477Z,6.78
2023-04-26T06:55:37.376Z,6.97
2023-04-26T06:58:06.613Z,6.86
2023-04-26T07:00:34.548Z,6.99
2023-04-26T07:03:02.615Z,7.33
2023-04-26T07:05:30.644Z,7.79
2023-04-26T07:07:58.611Z,8.12
2023-04-26T07:10:27.502Z,8.36
2023-04-26T07:12:55.781Z,9.12
2023-04-26T07:15:25.122Z,9.08
2023-04-26T07:17:53.066Z,8.71
2023-04-26T07:20:22.704Z,8.27
2023-04-26T07:22:51.092Z,9.00
2023-04-26T07:25:19.584Z,9.33
2023-04-26T07:27:47.542Z,10.01
2023-04-26T07:30:16.213Z,10.18
2023-04-26T07:32:45.742Z,10.03
2023-04-26T07:35:16.215Z,11.35
2023-04-26T07:37:44.919Z,12.17
2023-04-26T07:40:15.188Z,11.63
2023-04-26T07:42:43.127Z,11.59
2023-04-26T07:45:12.316Z,11.66
2023-04-26T07:47:40.199Z,12.12
2023-04-26T07:50:11.549Z,10.85
2023-04-26T07:52:39.363Z,10.15
2023-04-26T07:55:08.133Z,9.94
2023-04-26T07:57:36.295Z,9.26
2023-04-26T08:00:07.758Z,9.50
2023-04-26T08:02:44.941Z,9.81
2023-04-26T08:05:15.795Z,10.47
2023-04-26T08:07:44.346Z,11.18
2023-04-26T08:10:12.597Z,10.63
2023-04-26T08:12:40.486Z,11.04
2023-04-26T08:15:09.236Z,10.77
2023-04-26T08:17:37.536Z,10.05
2023-04-26T08:20:06.995Z,9.12
2023-04-26T08:22:36.262Z,8.73
2023-04-26T08:25:05.490Z,8.02
2023-04-26T08:27:34.410Z,8.03
2023-04-26T08:30:02.320Z,9.13
2023-04-26T08:32:31.350Z,10.47
2023-04-26T08:34:59.546Z,11.29
2023-04-26T08:37:29.654Z,12.01
2023-04-26T08:39:58.952Z,12.59
2023-04-26T08:42:28.825Z,11.68
2023-04-26T08:44:57.024Z,12.30
2023-04-26T08:47:31.639Z,11.42
2023-04-26T08:50:02.594Z,10.35
2023-04-26T08:52:32.166Z,9.78
2023-04-26T08:55:01.840Z,10.26
2023-04-26T08:57:31.333Z,11.60
2023-04-26T08:59:59.276Z,12.52
2023-04-26T09:02:27.425Z,13.50
2023-04-26T09:04:56.173Z,12.93
2023-04-26T09:07:30.844Z,11.94
2023-04-26T09:10:00.889Z,11.11
2023-04-26T09:12:28.820Z,10.54
2023-04-26T09:14:57.707Z,9.42
2023-04-26T09:17:29.394Z,9.33
2023-04-26T09:19:57.751Z,9.89
2023-04-26T09:22:30.272Z,9.82
2023-04-26T09:24:58.280Z,9.77
2023-04-26T09:27:35.629Z,9.58
2023-04-26T09:30:07.583Z,9.42
2023-04-26T09:32:46.316Z,10.03
2023-04-26T09:35:28.916Z,10.32
2023-04-26T09:38:04.102Z,10.43
2023-04-26T09:40:34.649Z,10.46
2023-04-26T09:43:05.801Z,10.19
2023-04-26T09:45:41.795Z,9.94
2023-04-26T09:48:22.454Z,9.55
2023-04-26T09:50:52.228Z,10.61
2023-04-26T09:53:27.657Z,11.24
2023-04-26T09:55:56.030Z,11.30
2023-04-26T09:58:25.539Z,10.72
2023-04-26T10:00:54.453Z,10.95
2023-04-26T10:03:24.352Z,11.44
2023-04-26T10:05:52.651Z,11.41
2023-04-26T10:08:20.504Z,11.03
2023-04-26T10:10:49.008Z,9.90
2023-04-26T10:13:17.530Z,10.00
2023-04-26T10:15:47.192Z,9.81
2023-04-26T10:18:15.132Z,9.76
2023-04-26T10:20:46.288Z,9.96
2023-04-26T10:23:20.023Z,10.25
2023-04-26T10:25:48.230Z,10.63
2023-04-26T10:28:17.412Z,10.73
2023-04-26T10:31:00.176Z,10.09
2023-04-26T10:33:30.062Z,10.08
2023-04-26T10:36:09.308Z,9.74
2023-04-26T10:38:39.314Z,9.08
2023-04-26T10:41:32.229Z,9.05
2023-04-26T10:44:16.014Z,8.98
2023-04-26T10:46:51.640Z,9.04
2023-04-26T10:49:24.961Z,8.69
2023-04-26T10:52:14.708Z,8.70
2023-04-26T10:54:53.164Z,8.88
2023-04-26T10:57:21.515Z,9.06
2023-04-26T11:02:58.143Z,10.25
2023-04-26T11:05:52.373Z,10.77
2023-04-26T11:08:21.159Z,11.16
2023-04-26T11:10:54.436Z,11.04
2023-04-26T11:13:22.327Z,10.82
2023-04-26T11:15:54.522Z,10.30
2023-04-26T11:18:23.900Z,9.96
2023-04-26T11:20:51.865Z,9.83
2023-04-26T11:23:20.631Z,10.01
2023-04-26T11:25:48.473Z,9.86
2023-04-26T11:28:16.971Z,9.44
2023-04-26T11:30:44.901Z,10.21
2023-04-26T11:33:17.889Z,10.31
2023-04-26T11:35:47.691Z,10.68
2023-04-26T11:38:15.964Z,10.81
2023-04-26T11:40:43.808Z,11.16
2023-04-26T11:43:13.647Z,11.26
2023-04-26T11:45:41.691Z,11.29
2023-04-26T11:48:11.894Z,10.96
2023-04-26T11:50:40.325Z,10.83
2023-04-26T11:53:10.057Z,10.55
2023-04-26T11:55:37.937Z,10.31
2023-04-26T11:58:14.645Z,10.44
2023-04-26T12:01:03.387Z,10.24
2023-04-26T12:03:33.246Z,9.96
2023-04-26T12:06:02.180Z,10.04
2023-04-26T12:08:31.589Z,10.46
2023-04-26T12:11:00.937Z,10.76
2023-04-26T12:13:29.399Z,11.45
2023-04-26T12:15:57.393Z,11.79
2023-04-26T12:18:31.588Z,11.74
2023-04-26T12:21:00.466Z,12.26
2023-04-26T12:23:41.846Z,12.08
2023-04-26T12:26:11.974Z,12.38
2023-04-26T12:28:39.982Z,12.55
2023-04-26T12:31:08.352Z,11.48
2023-04-26T12:33:36.739Z,11.50
2023-04-26T12:36:09.348Z,11.26
2023-04-26T12:38:37.415Z,10.99
2023-04-26T12:41:07.100Z,10.19
2023-04-26T12:43:34.959Z,10.25
2023-04-26T12:46:02.938Z,10.14
2023-04-26T12:48:30.849Z,10.12
2023-04-26T12:50:58.707Z,10.13
2023-04-26T12:53:26.944Z,10.00
2023-04-26T12:55:54.763Z,10.30
2023-04-26T12:58:25.547Z,11.04
2023-04-26T13:00:53.399Z,11.69
2023-04-26T13:03:21.327Z,11.98
2023-04-26T13:05:49.479Z,12.52
2023-04-26T13:08:17.415Z,13.46
2023-04-26T13:10:45.362Z,14.23
2023-04-26T13:13:13.236Z,15.06
2023-04-26T13:15:42.478Z,14.64
2023-04-26T13:18:10.396Z,14.14
2023-04-26T13:20:38.675Z,13.20
2023-04-26T13:23:06.807Z,11.45
2023-04-26T13:25:34.731Z,11.70
2023-04-26T13:28:02.998Z,11.37
2023-04-26T13:30:31.387Z,12.01
2023-04-26T13:33:01.094Z,12.34
2023-04-26T13:35:29.146Z,13.08
2023-04-26T13:37:57.222Z,12.75
2023-04-26T13:40:25.083Z,11.86
2023-04-26T13:42:52.930Z,11.38
2023-04-26T13:45:21.005Z,11.03
2023-04-26T13:47:48.835Z,11.00
2023-04-26T13:50:18.248Z,10.65
2023-04-26T13:52:46.430Z,10.68
2023-04-26T13:55:14.481Z,10.75
2023-04-26T13:57:42.573Z,10.50
2023-04-26T14:00:11.869Z,10.56
2023-04-26T14:02:39.870Z,10.23
2023-04-26T14:05:09.161Z,10.11
2023-04-26T14:07:38.541Z,10.50
2023-04-26T14:10:07.420Z,11.20
2023-04-26T14:12:35.504Z,11.29
2023-04-26T14:15:05.558Z,11.06
2023-04-26T14:17:33.778Z,10.78
2023-04-26T14:20:02.114Z,10.61
2023-04-26T14:22:29.917Z,10.67
2023-04-26T14:24:59.206Z,10.38
2023-04-26T14:27:27.582Z,10.51
2023-04-26T14:29:55.697Z,10.93
2023-04-26T14:32:24.513Z,11.59
2023-04-26T14:34:52.492Z,12.09
2023-04-26T14:37:22.413Z,11.57
2023-04-26T14:39:50.565Z,11.14
2023-04-26T14:42:19.852Z,11.04
2023-04-26T14:44:47.719Z,11.00
2023-04-26T14:47:15.666Z,10.87
2023-04-26T14:49:43.646Z,11.00
2023-04-26T14:52:11.718Z,10.99
2023-04-26T14:54:40.092Z,11.02
2023-04-26T14:57:08.019Z,10.80
2023-04-26T14:59:37.536Z,10.47
2023-04-26T15:02:05.652Z,10.38
2023-04-26T15:04:33.846Z,10.59
2023-04-26T15:07:02.631Z,10.34
2023-04-26T15:09:30.904Z,10.19
2023-04-26T15:11:58.787Z,10.07
2023-04-26T15:14:26.801Z,9.94
2023-04-26T15:16:56.134Z,9.91
2023-04-26T15:19:24.082Z,9.97
2023-04-26T15:21:52.076Z,10.18
2023-04-26T15:24:19.837Z,10.38
2023-04-26T15:26:47.682Z,10.51
2023-04-26T15:29:15.860Z,10.30
2023-04-26T15:31:43.801Z,10.16
2023-04-26T15:34:13.078Z,10.15
2023-04-26T15:36:40.875Z,10.19
2023-04-26T15:39:09.073Z,10.20
2023-04-26T15:41:36.961Z,10.16
2023-04-26T15:44:05.426Z,10.37
2023-04-26T15:46:33.248Z,10.39
2023-04-26T15:49:01.213Z,10.37
2023-04-26T15:51:30.527Z,10.36
2023-04-26T15:53:59.353Z,10.14
2023-04-26T15:56:27.435Z,10.06
2023-04-26T15:58:57.134Z,9.94
2023-04-26T16:01:25.182Z,9.95
2023-04-26T16:03:53.597Z,9.93
2023-04-26T16:06:21.771Z,9.91
2023-04-26T16:08:50.986Z,9.94
2023-04-26T16:11:18.994Z,9.96
2023-04-26T16:13:51.627Z,9.91
2023-04-26T16:16:19.638Z,9.89
2023-04-26T16:18:47.613Z,9.86
2023-04-26T16:21:16.106Z,9.94
2023-04-26T16:23:44.023Z,10.04
2023-04-26T16:26:13.322Z,9.93
2023-04-26T16:28:41.213Z,9.98
2023-04-26T16:31:09.617Z,9.91
2023-04-26T16:33:37.559Z,9.85
2023-04-26T16:36:06.034Z,9.81
2023-04-26T16:38:36.114Z,9.59
2023-04-26T16:41:04.247Z,9.48
2023-04-26T16:43:33.668Z,9.61
2023-04-26T16:46:02.530Z,9.57
2023-04-26T16:48:31.690Z,9.68
2023-04-26T16:50:59.712Z,9.77
2023-04-26T16:53:27.711Z,9.73
2023-04-26T16:55:55.577Z,9.79
2023-04-26T16:58:23.501Z,9.81
2023-04-26T17:00:53.001Z,9.88
2023-04-26T17:03:21.306Z,9.91
2023-04-26T17:05:49.653Z,9.81
2023-04-26T17:08:18.076Z,9.73
2023-04-26T17:10:47.152Z,9.71
2023-04-26T17:13:15.134Z,9.76
2023-04-26T17:15:43.500Z,9.72
2023-04-26T17:18:12.909Z,9.82
2023-04-26T17:20:41.855Z,9.89
2023-04-26T17:23:09.978Z,9.88
2023-04-26T17:25:37.825Z,9.87
2023-04-26T17:28:05.831Z,9.90
2023-04-26T17:30:33.890Z,9.87
2023-04-26T17:33:01.958Z,9.87
2023-04-26T17:35:31.330Z,9.76
2023-04-26T17:37:59.282Z,9.57
2023-04-26T17:40:27.266Z,9.53
2023-04-26T17:42:55.234Z,9.45
2023-04-26T17:45:23.415Z,9.35
2023-04-26T17:47:51.395Z,9.36
2023-04-26T17:50:20.974Z,9.21
2023-04-26T17:52:50.648Z,9.24
2023-04-26T17:55:18.712Z,9.14
2023-04-26T17:57:46.696Z,9.04
2023-04-26T18:00:15.686Z,9.04
2023-04-26T18:02:44.093Z,9.02
2023-04-26T18:05:13.380Z,8.97
2023-04-26T18:07:41.270Z,8.98
2023-04-26T18:10:11.224Z,8.92
2023-04-26T18:12:39.757Z,8.87
2023-04-26T18:15:08.985Z,8.85
2023-04-26T18:17:37.115Z,8.77
2023-04-26T18:20:06.532Z,8.79
2023-04-26T18:22:34.448Z,8.79
2023-04-26T18:25:02.278Z,8.81
2023-04-26T18:27:32.113Z,8.73
2023-04-26T18:30:00.195Z,8.67
2023-04-26T18:32:28.089Z,8.56
2023-04-26T18:34:56.098Z,8.54
2023-04-26T18:37:24.259Z,8.49
2023-04-26T18:39:52.196Z,8.49
2023-04-26T18:42:20.089Z,8.45
2023-04-26T18:44:49.362Z,8.41
2023-04-26T18:47:17.178Z,8.38
2023-04-26T18:49:45.131Z,8.36
2023-04-26T18:52:13.113Z,8.38
2023-04-26T18:54:41.209Z,8.43
2023-04-26T18:57:10.486Z,8.48
2023-04-26T18:59:38.647Z,8.44
2023-04-26T19:02:08.068Z,8.46
2023-04-26T19:04:36.121Z,8.44
2023-04-26T19:07:04.359Z,8.53
2023-04-26T19:09:42.842Z,8.50
2023-04-26T19:12:18.720Z,8.51
2023-04-26T19:14:46.651Z,8.50
2023-04-26T19:17:15.893Z,8.45
2023-04-26T19:19:43.772Z,8.38
2023-04-26T19:22:11.738Z,8.30
2023-04-26T19:24:39.537Z,8.23
2023-04-26T19:27:07.449Z,8.26
2023-04-26T19:29:35.386Z,8.25
2023-04-26T19:32:06.637Z,8.15
2023-04-26T19:34:38.739Z,8.12
2023-04-26T19:37:07.014Z,8.11
2023-04-26T19:39:34.947Z,8.06
2023-04-26T19:42:03.305Z,8.10
2023-04-26T19:44:32.180Z,8.06
2023-04-26T19:47:00.040Z,8.03
2023-04-26T19:49:29.110Z,7.98
2023-04-26T19:51:58.474Z,7.91
2023-04-26T19:54:26.381Z,7.91
2023-04-26T19:56:54.332Z,7.90
2023-04-26T19:59:22.358Z,7.93
2023-04-26T20:01:51.646Z,7.83
2023-04-26T20:04:21.859Z,7.78
2023-04-26T20:06:49.818Z,7.72
2023-04-26T20:09:19.092Z,7.73
2023-04-26T20:11:47.388Z,7.70
2023-04-26T20:14:15.994Z,7.68
2023-04-26T20:16:44.235Z,7.70
2023-04-26T20:19:12.159Z,7.65
2023-04-26T20:21:40.059Z,7.62
2023-04-26T20:24:08.487Z,7.65
2023-04-26T20:26:37.793Z,7.56
2023-04-26T20:29:05.909Z,7.55
2023-04-26T20:31:33.946Z,7.55
2023-04-26T20:34:01.861Z,7.56
2023-04-26T20:36:29.917Z,7.59
2023-04-26T20:38:57.731Z,7.61
2023-04-26T20:41:25.702Z,7.57
2023-04-26T20:43:55.005Z,7.58
2023-04-26T20:46:23.000Z,7.55
2023-04-26T20:48:50.830Z,7.56
2023-04-26T20:51:18.685Z,7.52
2023-04-26T20:53:46.510Z,7.52
2023-04-26T20:56:14.347Z,7.47
2023-04-26T20:58:42.213Z,7.46
2023-04-26T21:01:11.444Z,7.43
2023-04-26T21:03:39.576Z,7.41
2023-04-26T21:06:07.537Z,7.45
2023-04-26T21:08:36.818Z,7.41
2023-04-26T21:11:04.961Z,7.38
2023-04-26T21:13:32.892Z,7.36
2023-04-26T21:16:02.542Z,7.39
2023-04-26T21:18:31.785Z,7.41
2023-04-26T21:20:59.583Z,7.45
2023-04-26T21:23:27.410Z,7.43
2023-04-26T21:25:55.241Z,7.44
2023-04-26T21:28:23.127Z,7.45
2023-04-26T21:30:51.036Z,7.51
2023-04-26T21:33:18.985Z,7.51
2023-04-26T21:35:48.214Z,7.47
2023-04-26T21:38:16.036Z,7.45
2023-04-26T21:40:43.862Z,7.51
2023-04-26T21:43:11.737Z,7.49
2023-04-26T21:45:39.623Z,7.49
2023-04-26T21:48:07.467Z,7.60
2023-04-26T21:50:35.426Z,7.58
2023-04-26T21:53:04.652Z,7.55
2023-04-26T21:55:32.630Z,7.71
2023-04-26T21:58:00.484Z,7.62
2023-04-26T22:00:28.382Z,7.65
2023-04-26T22:02:56.389Z,7.63
2023-04-26T22:05:25.722Z,7.68
2023-04-26T22:07:53.756Z,7.63
2023-04-26T22:10:22.964Z,7.60
2023-04-26T22:12:50.808Z,7.66
2023-04-26T22:15:18.675Z,7.64
2023-04-26T22:17:46.626Z,7.66
2023-04-26T22:20:14.872Z,7.63
2023-04-26T22:22:42.850Z,7.63
2023-04-26T22:25:11.176Z,7.57
2023-04-26T22:27:40.452Z,7.57
2023-04-26T22:30:22.735Z,7.57
2023-04-26T22:32:54.468Z,7.61
2023-04-26T22:35:23.081Z,7.63
2023-04-26T22:37:51.504Z,7.60
2023-04-26T22:40:19.473Z,7.61
2023-04-26T22:42:48.682Z,7.61
2023-04-26T22:45:16.733Z,7.62
2023-04-26T22:47:44.671Z,7.62
2023-04-26T22:50:12.956Z,7.64
2023-04-26T22:52:40.997Z,7.59
2023-04-26T22:55:10.054Z,7.82
2023-04-26T22:57:38.271Z,7.61
2023-04-26T23:00:12.243Z,7.55
2023-04-26T23:02:40.228Z,7.50
2023-04-26T23:05:10.233Z,7.48
2023-04-26T23:07:38.388Z,7.48
2023-04-26T23:10:07.358Z,7.56
2023-04-26T23:12:35.879Z,7.47
2023-04-26T23:15:05.185Z,7.46
2023-04-26T23:17:35.581Z,7.47
2023-04-26T23:20:11.554Z,7.54
2023-04-26T23:22:40.006Z,7.50
2023-04-26T23:25:10.280Z,7.57
2023-04-26T23:27:39.227Z,7.44
2023-04-26T23:30:09.217Z,7.43
2023-04-26T23:32:39.501Z,7.43
2023-04-26T23:35:08.588Z,7.42
2023-04-26T23:37:36.420Z,7.37
2023-04-26T23:40:06.428Z,7.48
2023-04-26T23:42:34.526Z,7.44
2023-04-26T23:45:02.717Z,7.34
2023-04-26T23:47:31.943Z,7.44
2023-04-26T23:50:01.374Z,7.39
2023-04-26T23:52:29.187Z,7.42
2023-04-26T23:54:57.049Z,7.41
2023-04-26T23:57:25.065Z,7.38
2023-04-26T23:59:53.584Z,7.37
